Time;durP1;ratioP1;P1;durP2;ratioP2;P2;SDS_P1;SDS_P2;PMS_P1;PMS_P2;Temp;Humidity;BMP_temperature;BMP_pressure;BME280_temperature;BME280_humidity;BME280_pressure;Samples;Min_cycle;Max_cycle;Signal;HPM_P1;HPM_P2
2023/01/16 00:01:33;;;;;;;5.10;1.63;;;5.90;80.60;;;5.02;70.32;99185.44;5008643;28;20416;-73
2023/01/16 00:04:01;;;;;;;2.22;1.50;;;5.90;80.60;;;5.01;70.65;99183.78;5008364;28;20408;-73
2023/01/16 00:06:29;;;;;;;5.80;2.10;;;5.90;80.10;;;5.01;69.74;99192.56;5008227;28;20428;-73
2023/01/16 00:08:57;;;;;;;5.25;1.88;;;5.90;79.80;;;4.99;69.88;99188.44;5008437;28;20483;-73
2023/01/16 00:11:25;;;;;;;4.10;1.60;;;5.90;79.90;;;4.99;70.00;99177.81;5008153;28;20499;-73
2023/01/16 00:13:53;;;;;;;6.35;1.80;;;5.90;79.80;;;5.00;69.10;99176.84;5008331;28;20412;-73
2023/01/16 00:16:21;;;;;;;5.10;1.90;;;5.90;79.80;;;4.98;69.60;99173.50;5007899;28;20968;-73
2023/01/16 00:18:51;;;;;;;6.07;1.80;;;5.90;79.50;;;4.96;70.23;99167.53;5008530;28;20516;-73
2023/01/16 00:21:19;;;;;;;2.53;1.70;;;5.90;80.20;;;4.98;70.19;99157.59;5008234;28;20416;-73
2023/01/16 00:23:47;;;;;;;3.35;1.60;;;5.90;80.20;;;4.97;69.19;99161.22;5008073;28;20416;-73
2023/01/16 00:26:15;;;;;;;3.60;1.50;;;5.90;79.50;;;4.97;69.21;99155.91;5007898;28;21126;-73
2023/01/16 00:28:43;;;;;;;4.13;1.70;;;5.90;79.40;;;4.95;69.50;99158.75;5007110;28;20420;-73
2023/01/16 00:31:12;;;;;;;3.88;1.65;;;5.80;79.70;;;4.95;68.89;99144.66;5008135;28;20896;-73
2023/01/16 00:33:40;;;;;;;3.15;1.60;;;5.90;79.30;;;4.95;69.33;99147.31;5007576;28;20413;-73
2023/01/16 00:36:11;;;;;;;5.35;1.77;;;5.90;79.50;;;4.94;69.83;99151.78;5005962;28;20425;-73
2023/01/16 00:38:39;;;;;;;3.60;1.70;;;5.90;79.90;;;4.93;69.29;99144.00;5006590;28;20415;-73
2023/01/16 00:41:07;;;;;;;3.22;1.40;;;5.80;79.40;;;4.92;69.28;99139.69;5008249;28;20777;-73
2023/01/16 00:43:36;;;;;;;2.85;1.67;;;5.90;79.50;;;4.94;70.07;99145.63;5008047;28;20420;-73
2023/01/16 00:46:05;;;;;;;3.65;1.80;;;5.80;80.00;;;4.92;70.41;99134.38;5007540;28;20408;-73
2023/01/16 00:48:33;;;;;;;2.53;1.42;;;5.80;80.00;;;4.91;70.59;99127.41;5007593;28;20940;-73
2023/01/16 00:51:01;;;;;;;3.77;1.80;;;5.80;80.30;;;4.94;70.27;99135.03;5008116;28;20416;-73
2023/01/16 00:53:30;;;;;;;4.03;1.67;;;5.90;80.10;;;4.93;70.28;99133.38;5007943;28;20442;-73
2023/01/16 00:55:59;;;;;;;4.78;1.73;;;5.80;80.40;;;4.90;70.73;99129.22;5007705;28;20420;-73
2023/01/16 00:58:27;;;;;;;5.05;1.50;;;5.80;80.40;;;4.89;70.25;99137.34;5007731;28;20478;-72
2023/01/16 01:00:55;;;;;;;3.20;1.52;;;5.80;80.30;;;4.87;70.11;99134.84;5008167;28;20474;-71
2023/01/16 01:03:23;;;;;;;5.32;1.90;;;5.70;80.30;;;4.85;70.63;99131.53;5007684;28;20776;-71
2023/01/16 01:05:51;;;;;;;4.22;1.60;;;5.70;80.60;;;4.84;70.65;99124.56;5007528;28;20408;-71
2023/01/16 01:08:19;;;;;;;3.75;1.70;;;5.80;80.50;;;4.84;70.51;99129.88;5007868;28;20415;-71
2023/01/16 01:10:49;;;;;;;4.28;1.77;;;5.70;80.60;;;4.84;70.54;99118.44;5007644;28;20413;-71
2023/01/16 01:13:17;;;;;;;5.07;1.67;;;5.80;80.90;;;4.81;70.25;99124.06;5007924;28;20889;-72
2023/01/16 01:15:45;;;;;;;4.20;1.77;;;5.70;80.10;;;4.79;70.01;99116.31;5009152;28;20416;-72
2023/01/16 01:18:13;;;;;;;2.77;1.53;;;5.70;80.10;;;4.77;70.55;99114.78;5011313;28;20782;-72
2023/01/16 01:20:41;;;;;;;4.20;1.95;;;5.70;80.60;;;4.78;70.40;99111.16;5011340;28;20405;-72
2023/01/16 01:23:09;;;;;;;4.87;1.90;;;5.70;80.90;;;4.80;71.22;99112.63;5011437;28;20420;-72
2023/01/16 01:25:38;;;;;;;4.20;1.85;;;5.70;81.30;;;4.79;70.61;99113.66;5010843;28;20415;-72
2023/01/16 01:28:08;;;;;;;5.63;2.22;;;5.70;80.50;;;4.80;70.27;99101.19;5010903;28;20405;-71
2023/01/16 01:30:37;;;;;;;5.05;1.80;;;5.70;80.60;;;4.83;70.56;99108.84;5010863;28;20900;-71
2023/01/16 01:33:06;;;;;;;4.00;1.70;;;5.80;80.20;;;4.83;70.27;99104.34;5010912;28;20417;-73
2023/01/16 01:35:34;;;;;;;4.30;1.80;;;5.80;80.10;;;4.81;70.34;99094.91;5010552;28;20416;-72
2023/01/16 01:38:02;;;;;;;2.58;1.60;;;5.80;80.10;;;4.82;70.64;99099.22;5010525;28;21193;-72
2023/01/16 01:40:30;;;;;;;4.20;1.92;;;5.70;80.30;;;4.82;70.21;99094.75;5010916;28;20401;-72
2023/01/16 01:42:58;;;;;;;3.60;1.70;;;5.80;80.40;;;4.80;71.27;99095.88;5010530;28;20901;-72
2023/01/16 01:45:31;;;;;;;3.88;1.80;;;5.70;80.70;;;4.78;71.20;99088.13;5010660;28;20418;-72
2023/01/16 01:48:19;;;;;;;4.00;1.70;;;5.70;81.20;;;4.76;71.93;99094.59;5010803;28;20412;-72
2023/01/16 01:50:55;;;;;;;3.65;1.80;;;5.70;81.60;;;4.74;71.44;99084.13;5010590;28;20903;-72
2023/01/16 01:53:30;;;;;;;3.50;1.60;;;5.70;81.70;;;4.73;71.59;99078.97;5010594;28;20820;-72
2023/01/16 01:56:04;;;;;;;4.30;1.80;;;5.60;81.90;;;4.71;71.39;99073.03;5010281;28;20409;-73
2023/01/16 01:58:34;;;;;;;4.10;1.73;;;5.70;82.00;;;4.69;72.18;99067.91;5008059;28;20420;-72
2023/01/16 02:01:05;;;;;;;6.25;2.22;;;5.60;82.00;;;4.69;71.97;99067.06;5012044;28;20504;-72
2023/01/16 02:03:40;;;;;;;5.22;1.90;;;5.60;82.20;;;4.68;72.44;99062.75;5010317;28;21001;-72
2023/01/16 02:06:18;;;;;;;5.32;1.92;;;5.60;82.50;;;4.66;72.67;99057.59;5010260;28;20578;-72
2023/01/16 02:08:52;;;;;;;5.15;2.10;;;5.60;82.70;;;4.65;72.55;99048.00;5007508;28;20412;-72
2023/01/16 02:11:32;;;;;;;4.78;1.90;;;5.60;83.00;;;4.65;73.14;99044.53;5009995;28;20797;-72
2023/01/16 02:14:05;;;;;;;4.15;1.95;;;5.60;83.30;;;4.64;73.03;99042.84;5029820;28;20407;-72
2023/01/16 02:19:37;;;;;;;3.65;1.75;;;5.50;83.50;;;4.54;73.43;99038.56;5021876;28;21032;-72
2023/01/16 02:22:44;;;;;;;4.13;1.80;;;5.40;83.90;;;4.50;73.56;99031.09;5002739;28;20965;-72
2023/01/16 02:26:19;;;;;;;4.88;1.83;;;5.40;83.80;;;4.48;73.01;99025.97;5008115;28;20901;-72
2023/01/16 02:29:37;;;;;;;3.35;1.50;;;5.40;84.10;;;4.49;73.51;99024.94;5010175;28;20401;-72
2023/01/16 02:32:26;;;;;;;4.75;1.83;;;5.40;84.00;;;4.45;73.14;99012.22;4983070;28;86062;-72
2023/01/16 02:35:22;;;;;;;3.58;1.70;;;5.30;84.00;;;4.45;73.78;98999.75;5007010;28;20848;-73
2023/01/16 02:37:57;;;;;;;3.58;1.63;;;5.40;84.30;;;4.45;73.79;98997.09;5009543;28;20437;-73
2023/01/16 02:40:40;;;;;;;3.22;1.70;;;5.40;84.30;;;4.42;74.05;98996.59;5009573;28;20869;-73
2023/01/16 02:43:25;;;;;;;3.55;1.67;;;5.40;84.60;;;4.38;73.90;98993.50;5009748;28;20413;-73
2023/01/16 02:46:07;;;;;;;4.72;1.80;;;5.30;84.80;;;4.33;74.57;98985.19;5009501;28;20405;-73
2023/01/16 02:48:44;;;;;;;5.75;1.77;;;5.30;85.00;;;4.36;74.13;98981.38;5009099;28;20885;-72
2023/01/16 02:51:24;;;;;;;3.50;1.77;;;5.30;85.30;;;4.35;74.59;98963.84;5009933;28;20400;-73
2023/01/16 02:54:03;;;;;;;4.05;1.95;;;5.30;85.30;;;4.35;74.73;98963.84;5009304;28;20405;-73
2023/01/16 02:56:41;;;;;;;3.60;1.75;;;5.30;85.60;;;4.32;75.03;98954.38;5009301;28;20397;-72
2023/01/16 02:59:11;;;;;;;3.20;1.80;;;5.20;85.60;;;4.31;74.79;98954.56;5009029;28;20849;-72
2023/01/16 03:01:40;;;;;;;4.82;1.63;;;5.20;85.70;;;4.27;74.85;98946.09;5022199;28;20765;-72
2023/01/16 03:04:47;;;;;;;3.40;1.63;;;5.20;85.80;;;4.26;75.36;98943.63;5029180;28;20407;-73
2023/01/16 03:07:39;;;;;;;4.78;1.80;;;5.20;86.10;;;4.25;75.81;98941.94;5028805;28;20407;-73
2023/01/16 03:10:26;;;;;;;2.87;1.60;;;5.20;86.20;;;4.26;75.90;98938.31;5028619;28;20414;-73
2023/01/16 03:13:16;;;;;;;5.50;1.80;;;5.20;86.20;;;4.24;75.52;98938.50;5028957;28;20407;-73
2023/01/16 03:15:58;;;;;;;5.53;1.80;;;5.20;86.30;;;4.23;75.68;98938.66;5028283;28;21022;-73
2023/01/16 03:18:42;;;;;;;4.47;1.80;;;5.20;86.40;;;4.19;75.82;98932.84;5028874;28;20427;-73
2023/01/16 03:21:21;;;;;;;4.75;1.92;;;5.10;86.50;;;4.20;76.34;98929.22;5028810;28;20423;-72
2023/01/16 03:23:54;;;;;;;4.53;2.33;;;5.10;86.90;;;4.21;76.43;98927.41;5028770;28;20407;-73
2023/01/16 03:26:30;;;;;;;4.00;1.90;;;5.20;87.50;;;4.21;76.67;98928.22;5028698;28;20457;-73
2023/01/16 03:29:11;;;;;;;4.53;1.90;;;5.10;87.90;;;4.23;76.99;98939.47;5028418;28;20399;-72
2023/01/16 03:31:50;;;;;;;4.53;1.67;;;5.20;88.00;;;4.23;76.98;98925.41;5028782;28;20411;-73
2023/01/16 03:34:30;;;;;;;4.07;1.88;;;5.20;88.90;;;4.17;77.06;98934.84;5028582;28;20453;-72
2023/01/16 03:37:08;;;;;;;3.63;1.75;;;5.10;88.00;;;4.12;77.54;98926.53;5028108;28;20803;-73
2023/01/16 03:39:43;;;;;;;4.10;1.80;;;5.10;88.70;;;4.11;78.49;98924.06;5027771;28;20406;-73
2023/01/16 03:42:20;;;;;;;5.23;1.90;;;5.10;89.80;;;4.08;79.33;98920.75;5028416;28;21030;-73
2023/01/16 03:44:56;;;;;;;4.57;1.88;;;5.00;90.30;;;4.07;80.18;98907.69;5028347;28;20808;-73
2023/01/16 03:47:31;;;;;;;5.50;1.80;;;5.00;90.50;;;4.07;79.39;98903.19;5028369;28;20453;-73
2023/01/16 03:50:06;;;;;;;4.43;1.80;;;5.00;90.60;;;4.10;79.88;98896.75;5028161;28;20958;-73
2023/01/16 03:52:41;;;;;;;4.97;1.85;;;5.10;90.70;;;4.12;79.97;98884.16;5028378;28;20403;-73
2023/01/16 03:55:19;;;;;;;3.43;1.60;;;5.00;90.70;;;4.11;79.47;98881.72;5028329;28;20403;-73
2023/01/16 03:57:56;;;;;;;3.65;1.88;;;5.10;90.60;;;4.03;78.83;98866.63;5027829;28;20434;-73
2023/01/16 04:00:36;;;;;;;4.05;1.65;;;5.00;90.50;;;4.05;79.49;98877.88;5025486;28;20463;-73
2023/01/16 04:03:11;;;;;;;3.85;1.70;;;5.00;90.50;;;4.03;80.09;98864.81;5008358;28;20408;-73
2023/01/16 04:05:50;;;;;;;2.83;1.43;;;5.00;90.70;;;4.06;79.99;98866.31;5008589;28;20768;-73
2023/01/16 04:08:28;;;;;;;4.33;1.70;;;5.00;90.70;;;4.04;79.51;98861.16;5008024;28;20476;-73
2023/01/16 04:10:57;;;;;;;3.92;1.75;;;5.00;90.70;;;4.03;79.55;98864.00;5001231;28;20459;-73
2023/01/16 04:13:32;;;;;;;3.28;1.55;;;4.90;90.60;;;3.99;79.58;98850.25;5008260;28;20450;-73
2023/01/16 04:16:07;;;;;;;5.65;1.90;;;4.90;90.50;;;3.97;79.85;98854.06;5001712;28;20443;-73
2023/01/16 04:18:37;;;;;;;4.18;1.70;;;4.90;90.50;;;3.95;79.27;98850.72;5008198;28;20450;-73
2023/01/16 04:21:06;;;;;;;3.50;1.77;;;4.90;90.60;;;3.91;79.42;98852.03;5008283;28;20455;-73
2023/01/16 04:23:36;;;;;;;3.10;1.50;;;4.90;90.60;;;3.88;79.22;98849.72;5008010;28;20428;-73
2023/01/16 04:26:05;;;;;;;3.42;1.60;;;4.80;90.30;;;3.85;79.12;98847.41;5007445;28;20409;-73
2023/01/16 04:28:33;;;;;;;3.58;1.70;;;4.70;90.30;;;3.84;78.70;98836.00;5008298;28;20412;-73
2023/01/16 04:31:01;;;;;;;3.85;1.60;;;4.70;90.40;;;3.84;78.78;98829.88;5008190;28;20462;-73
2023/01/16 04:33:29;;;;;;;3.67;1.65;;;4.70;90.20;;;3.83;78.63;98817.66;5007971;28;20409;-73
2023/01/16 04:35:57;;;;;;;3.60;1.55;;;4.70;90.10;;;3.81;78.74;98814.31;5007594;28;20467;-73
2023/01/16 04:38:26;;;;;;;3.75;1.60;;;4.70;90.10;;;3.80;78.63;98815.31;5007599;28;20458;-73
2023/01/16 04:40:55;;;;;;;4.20;1.77;;;4.70;90.00;;;3.78;78.13;98812.84;5007940;28;20405;-72
2023/01/16 04:43:23;;;;;;;3.63;1.60;;;4.70;90.00;;;3.78;78.61;98812.00;5008263;28;20905;-73
2023/01/16 04:45:51;;;;;;;2.90;1.65;;;4.70;90.20;;;3.77;78.03;98813.81;5007690;28;20412;-73
2023/01/16 04:48:19;;;;;;;3.17;1.73;;;4.70;90.10;;;3.74;78.53;98794.78;5008147;28;20404;-73
2023/01/16 04:50:49;;;;;;;3.42;1.45;;;4.60;90.10;;;3.76;79.21;98788.38;5011246;28;20416;-66
2023/01/16 04:53:17;;;;;;;4.35;1.55;;;4.70;90.30;;;3.79;78.74;98789.84;5011182;28;20408;-69
2023/01/16 04:55:45;;;;;;;5.38;1.70;;;4.70;90.10;;;3.78;78.56;98782.88;5010264;28;20412;-69
2023/01/16 04:58:15;;;;;;;3.20;1.70;;;4.70;90.10;;;3.78;78.68;98781.06;5010626;28;20425;-69
2023/01/16 05:00:43;;;;;;;3.33;1.63;;;4.70;90.10;;;3.79;78.51;98779.25;5011633;28;20409;-69
2023/01/16 05:03:11;;;;;;;3.42;1.60;;;4.80;90.00;;;3.80;77.97;98776.44;5011114;28;20909;-69
2023/01/16 05:05:40;;;;;;;3.57;1.90;;;4.70;90.20;;;3.77;78.26;98779.41;5009947;28;20976;-70
2023/01/16 05:08:16;;;;;;;3.70;1.80;;;4.70;89.60;;;3.75;77.74;98764.69;5011076;28;20432;-69
2023/01/16 05:10:45;;;;;;;3.38;2.00;;;4.70;89.80;;;3.74;78.42;98770.97;5010709;28;20413;-69
2023/01/16 05:13:14;;;;;;;3.42;1.67;;;4.70;89.80;;;3.73;78.24;98771.97;5010884;28;21059;-70
2023/01/16 05:15:44;;;;;;;4.20;1.70;;;4.60;89.80;;;3.69;78.14;98771.47;5010617;28;20455;-70
2023/01/16 05:18:12;;;;;;;3.35;1.80;;;4.70;89.80;;;3.69;78.27;98765.34;5011057;28;20928;-70
2023/01/16 05:20:41;;;;;;;4.15;1.80;;;4.60;89.70;;;3.68;77.67;98761.03;5010991;28;20412;-71
2023/01/16 05:23:10;;;;;;;3.40;1.80;;;4.60;89.70;;;3.67;78.19;98762.03;5010950;28;20908;-71
2023/01/16 05:25:38;;;;;;;4.15;1.88;;;4.60;89.90;;;3.65;78.25;98753.44;5010798;28;20412;-70
2023/01/16 05:28:07;;;;;;;3.97;1.90;;;4.60;89.90;;;3.63;77.88;98750.16;5010624;28;20893;-70
2023/01/16 05:30:36;;;;;;;3.88;1.70;;;4.50;89.60;;;3.61;77.69;98741.53;5010808;28;20766;-70
2023/01/16 05:33:08;;;;;;;4.32;1.90;;;4.50;89.70;;;3.58;77.76;98750.63;5011444;28;20498;-70
2023/01/16 05:35:36;;;;;;;3.03;1.58;;;4.50;89.80;;;3.56;77.99;98740.19;5011018;28;20408;-71
2023/01/16 05:38:04;;;;;;;3.42;1.65;;;4.50;89.90;;;3.57;77.94;98741.84;5010505;28;20413;-71
2023/01/16 05:40:32;;;;;;;3.37;1.43;;;4.50;89.90;;;3.55;77.79;98737.72;5010560;28;20464;-71
2023/01/16 05:43:00;;;;;;;3.38;1.60;;;4.50;89.90;;;3.52;78.15;98733.59;5010360;28;20416;-71
2023/01/16 05:45:28;;;;;;;3.30;1.63;;;4.40;89.80;;;3.53;78.43;98737.06;5010769;28;20408;-71
2023/01/16 05:47:58;;;;;;;2.95;1.75;;;4.50;90.00;;;3.51;77.97;98731.94;5010487;28;20720;-71
2023/01/16 05:50:27;;;;;;;3.15;1.50;;;4.40;90.00;;;3.52;77.93;98727.47;5010857;28;20431;-71
2023/01/16 05:52:55;;;;;;;2.90;1.60;;;4.40;90.00;;;3.50;78.81;98725.00;5010523;28;20412;-71
2023/01/16 05:55:23;;;;;;;4.43;1.70;;;4.40;90.00;;;3.47;78.25;98729.78;5010494;28;20409;-71
2023/01/16 05:57:51;;;;;;;4.55;1.73;;;4.40;90.10;;;3.46;78.77;98723.66;5010323;28;20619;-71
2023/01/16 06:00:20;;;;;;;3.55;2.10;;;4.40;90.20;;;3.43;78.33;98726.63;5009719;28;21049;-71
2023/01/16 06:02:50;;;;;;;3.67;2.00;;;4.40;90.30;;;3.42;78.67;98717.06;5009998;28;20413;-71
2023/01/16 06:05:19;;;;;;;3.45;1.92;;;4.40;90.30;;;3.42;79.19;98711.78;5010068;28;20412;-71
2023/01/16 06:07:47;;;;;;;3.90;1.88;;;4.30;90.30;;;3.40;78.44;98708.44;5009430;28;20486;-70
2023/01/16 06:10:16;;;;;;;4.30;2.05;;;4.30;90.30;;;3.41;78.76;98701.34;5009606;28;20411;-70
2023/01/16 06:12:44;;;;;;;3.55;1.90;;;4.40;90.40;;;3.39;79.27;98712.06;5009407;28;20427;-70
2023/01/16 06:15:13;;;;;;;4.37;1.83;;;4.30;90.40;;;3.39;79.43;98698.84;5009832;28;20816;-72
2023/01/16 06:17:41;;;;;;;3.58;1.70;;;4.30;90.50;;;3.40;79.24;98697.88;5009678;28;20405;-70
2023/01/16 06:20:11;;;;;;;3.78;1.70;;;4.30;90.50;;;3.40;79.96;98687.28;5009437;28;20921;-70
2023/01/16 06:22:40;;;;;;;4.30;1.58;;;4.30;90.70;;;3.41;80.19;98683.66;5009722;28;20412;-71
2023/01/16 06:25:09;;;;;;;3.05;1.50;;;4.40;90.90;;;3.42;80.72;98685.31;5009870;28;20401;-71
2023/01/16 06:27:37;;;;;;;3.60;1.77;;;4.40;91.20;;;3.43;80.73;98676.38;5009406;28;20412;-70
2023/01/16 06:30:07;;;;;;;2.53;1.55;;;4.40;91.40;;;3.44;80.87;98669.28;5009658;28;20440;-70
2023/01/16 06:32:35;;;;;;;3.28;1.60;;;4.40;91.60;;;3.42;81.57;98674.75;5009463;28;20912;-71
2023/01/16 06:35:04;;;;;;;4.03;1.80;;;4.40;91.70;;;3.40;82.03;98671.41;5009570;28;20416;-70
2023/01/16 06:37:32;;;;;;;2.75;1.55;;;4.40;91.90;;;3.40;81.66;98658.19;5006292;28;20427;-70
2023/01/16 06:40:02;;;;;;;3.15;1.63;;;4.30;92.00;;;3.36;81.95;98654.22;5008498;28;20828;-71
2023/01/16 06:42:30;;;;;;;2.42;1.40;;;4.40;92.00;;;3.33;81.84;98646.63;5008692;28;20759;-70
2023/01/16 06:44:58;;;;;;;3.85;1.60;;;4.30;92.00;;;3.33;82.37;98638.69;5008897;28;20893;-71
2023/01/16 06:47:27;;;;;;;3.60;1.60;;;4.30;92.00;;;3.32;81.97;98636.22;5008975;28;20412;-71
2023/01/16 06:49:55;;;;;;;2.25;1.38;;;4.30;92.10;;;3.30;81.34;98632.91;5009108;28;20407;-70
2023/01/16 06:52:23;;;;;;;2.70;1.60;;;4.20;92.00;;;3.27;81.96;98626.13;5008910;28;20419;-70
2023/01/16 06:54:51;;;;;;;2.97;1.50;;;4.20;92.10;;;3.29;82.55;98631.28;5007974;28;20491;-70
2023/01/16 06:57:20;;;;;;;1.83;1.30;;;4.20;92.10;;;3.28;82.41;98625.16;5007080;28;20421;-70
2023/01/16 06:59:50;;;;;;;2.95;1.50;;;4.20;92.20;;;3.27;82.72;98618.19;5008831;28;20500;-70
2023/01/16 07:02:18;;;;;;;2.65;1.40;;;4.20;92.20;;;3.27;82.35;98610.25;5011812;28;20416;-70
2023/01/16 07:04:46;;;;;;;2.78;1.50;;;4.20;92.30;;;3.25;82.41;98612.25;5008355;28;20412;-70
2023/01/16 07:07:14;;;;;;;1.95;1.42;;;4.20;92.40;;;3.25;82.23;98614.91;5007561;28;20528;-70
2023/01/16 07:09:42;;;;;;;3.92;1.92;;;4.20;92.40;;;3.25;82.28;98609.63;5008316;28;20413;-70
2023/01/16 07:12:10;;;;;;;5.28;1.80;;;4.20;92.40;;;3.22;83.09;98604.63;5008177;28;20483;-71
2023/01/16 07:22:58;;;;;;;4.20;2.15;;;4.20;92.50;;;3.15;82.57;98603.63;5008742;28;20404;-72
2023/01/16 07:25:35;;;;;;;5.47;2.55;;;4.10;92.40;;;3.16;83.01;98602.66;5008877;28;20408;-72
2023/01/16 07:28:04;;;;;;;3.80;2.72;;;4.10;92.40;;;3.15;83.03;98600.19;5003715;28;20420;-72
2023/01/16 07:30:34;;;;;;;6.35;2.70;;;4.10;92.50;;;3.13;82.99;98603.00;5008459;28;20479;-72
2023/01/16 07:33:02;;;;;;;4.75;2.40;;;4.10;92.50;;;3.13;83.08;98581.00;5007802;28;20770;-72
2023/01/16 07:35:30;;;;;;;4.50;2.00;;;4.00;92.60;;;3.11;82.96;98581.19;5007970;28;20417;-71
2023/01/16 07:37:58;;;;;;;3.20;2.00;;;4.10;92.60;;;3.10;82.34;98565.47;5008309;28;20408;-72
2023/01/16 07:40:26;;;;;;;3.40;1.70;;;4.10;92.50;;;3.12;82.28;98566.16;5008086;28;20486;-71
2023/01/16 07:42:54;;;;;;;5.40;1.90;;;4.10;92.40;;;3.13;82.37;98559.84;5008489;28;20420;-71
2023/01/16 07:45:22;;;;;;;5.53;2.05;;;4.10;92.30;;;3.10;82.31;98563.66;5008271;28;20808;-71
2023/01/16 07:47:51;;;;;;;5.78;2.05;;;4.00;92.40;;;3.09;82.38;98556.72;5008085;28;20897;-69
2023/01/16 07:50:19;;;;;;;7.10;2.20;;;4.00;92.30;;;3.08;82.18;98555.09;5008389;28;20407;-72
2023/01/16 07:52:50;;;;;;;4.55;2.25;;;4.10;92.30;;;3.10;82.19;98537.22;5008318;28;20408;-72
2023/01/16 07:55:18;;;;;;;5.20;2.38;;;4.00;92.20;;;3.07;82.04;98545.50;5008006;28;21098;-72
2023/01/16 07:57:46;;;;;;;4.35;2.10;;;4.00;92.30;;;3.09;82.02;98548.78;5008320;28;20412;-71
2023/01/16 08:00:15;;;;;;;5.25;2.15;;;4.00;92.20;;;3.10;81.89;98542.53;5008191;28;20431;-72
2023/01/16 08:02:43;;;;;;;4.60;2.28;;;4.00;92.20;;;3.10;82.20;98526.66;5008261;28;20444;-71
2023/01/16 08:05:13;;;;;;;5.97;2.70;;;4.00;92.20;;;3.10;82.00;98524.00;5008085;28;20401;-72
2023/01/16 08:07:41;;;;;;;3.78;2.40;;;4.00;92.20;;;3.09;82.27;98519.72;5007886;28;20409;-71
2023/01/16 08:10:12;;;;;;;4.55;2.33;;;4.00;92.20;;;3.11;82.17;98523.03;5008104;28;20467;-71
2023/01/16 08:12:40;;;;;;;5.25;2.50;;;4.10;92.30;;;3.13;82.16;98518.38;5007777;28;20427;-71
2023/01/16 08:15:09;;;;;;;4.03;1.90;;;4.10;92.30;;;3.15;82.36;98513.75;5008306;28;20409;-72
2023/01/16 08:17:40;;;;;;;4.25;2.00;;;4.10;92.30;;;3.16;82.57;98510.13;5007733;28;20409;-71
2023/01/16 08:20:11;;;;;;;4.63;2.10;;;4.20;92.30;;;3.19;82.12;98509.78;5007938;28;20424;-72
2023/01/16 08:22:44;;;;;;;4.78;2.50;;;4.20;92.20;;;3.20;82.33;98503.50;5008120;28;20893;-72
2023/01/16 08:25:13;;;;;;;4.97;1.97;;;4.20;92.20;;;3.23;82.51;98494.41;5010563;28;20816;-70
2023/01/16 08:27:43;;;;;;;3.58;1.88;;;4.20;92.30;;;3.22;81.93;98496.22;5011730;28;20487;-69
2023/01/16 08:30:13;;;;;;;3.72;2.00;;;4.20;92.20;;;3.18;82.41;98500.22;5010998;28;21123;-69
2023/01/16 08:32:41;;;;;;;5.07;2.17;;;4.20;92.30;;;3.19;82.43;98488.63;5006184;28;20494;-71
2023/01/16 08:35:11;;;;;;;4.53;2.20;;;4.20;92.30;;;3.22;82.78;98487.50;5005316;28;20882;-69
2023/01/16 08:37:39;;;;;;;5.10;2.15;;;4.20;92.40;;;3.23;82.97;98484.66;5011542;28;20415;-69
2023/01/16 08:40:11;;;;;;;3.80;1.90;;;4.20;92.40;;;3.23;82.68;98474.09;5011543;28;20431;-69
2023/01/16 08:53:43;;;;;;;4.32;2.50;;;4.30;92.60;;;3.36;83.23;98436.50;5011592;28;20419;-69
2023/01/16 08:56:13;;;;;;;4.88;2.50;;;4.30;92.50;;;3.44;82.39;98436.50;5011352;28;20404;-68
2023/01/16 08:58:41;;;;;;;5.72;2.47;;;4.40;92.30;;;3.50;82.72;98428.69;5008885;28;20429;-69
2023/01/16 09:01:09;;;;;;;5.57;2.53;;;4.50;92.60;;;3.58;81.34;98433.97;5012264;28;20509;-70
2023/01/16 09:03:37;;;;;;;3.95;2.30;;;4.60;92.10;;;3.65;82.00;98427.97;5010099;28;20411;-69
2023/01/16 09:06:06;;;;;;;6.10;2.37;;;4.60;91.90;;;3.65;81.94;98433.28;5010469;28;20412;-69
2023/01/16 09:08:34;;;;;;;4.60;2.20;;;4.60;91.70;;;3.68;81.29;98420.53;5010765;28;20409;-70
2023/01/16 09:13:50;;;;;;;5.63;2.47;;;4.70;91.60;;;3.76;81.06;98430.25;5011198;28;20426;-69
2023/01/16 09:16:19;;;;;;;5.28;2.10;;;4.80;91.50;;;3.80;80.94;98423.63;5010735;28;20467;-68
2023/01/16 09:18:48;;;;;;;4.80;2.03;;;4.80;91.40;;;3.82;80.97;98416.31;5010990;28;20412;-69
2023/01/16 09:21:18;;;;;;;4.87;2.23;;;4.80;91.40;;;3.87;80.23;98413.97;5010789;28;20429;-69
2023/01/16 09:23:46;;;;;;;3.90;2.00;;;4.80;91.30;;;3.88;80.98;98415.59;5011014;28;20408;-69
2023/01/16 09:26:15;;;;;;;5.60;2.40;;;4.90;91.40;;;3.91;80.62;98400.19;5010353;28;20519;-69
2023/01/16 09:28:43;;;;;;;3.60;1.93;;;4.90;91.30;;;3.99;81.14;98407.28;5010978;28;20505;-69
2023/01/16 09:31:13;;;;;;;5.22;2.05;;;5.00;91.20;;;4.03;80.49;98405.94;5010936;28;20762;-69
2023/01/16 09:33:41;;;;;;;5.38;2.00;;;5.00;91.10;;;4.07;80.28;98401.94;5010742;28;20895;-69
2023/01/16 09:36:09;;;;;;;4.78;2.13;;;5.00;91.00;;;4.12;80.17;98393.44;5016714;28;20410;-69
2023/01/16 09:38:37;;;;;;;3.60;1.65;;;5.10;90.70;;;4.13;79.49;98393.28;5029864;28;20883;-69
2023/01/16 09:41:06;;;;;;;5.37;1.97;;;5.10;90.80;;;4.23;79.02;98391.22;5030673;28;20472;-69
2023/01/16 09:43:40;;;;;;;3.80;2.03;;;5.20;90.50;;;4.29;79.31;98385.22;5030600;28;20419;-68
2023/01/16 09:46:15;;;;;;;3.80;1.87;;;5.30;90.30;;;4.24;79.43;98374.34;5027874;28;20403;-68
2023/01/16 09:48:52;;;;;;;3.97;2.08;;;5.20;90.40;;;4.23;79.11;98361.25;5004612;28;20423;-69
2023/01/16 09:51:25;;;;;;;3.25;1.90;;;5.20;90.80;;;4.22;79.21;98352.50;5010433;28;20405;-69
2023/01/16 09:59:44;;;;;;;5.15;2.33;;;5.20;90.20;;;4.27;78.23;98342.19;5030029;28;20815;-70
2023/01/16 10:02:24;;;;;;;4.30;1.90;;;5.30;90.20;;;4.28;78.86;98327.94;5011829;28;20435;-69
2023/01/16 10:04:55;;;;;;;3.53;1.75;;;5.30;90.20;;;4.32;77.99;98326.56;5010099;28;20482;-69
2023/01/16 10:07:48;;;;;;;6.25;1.88;;;5.30;90.00;;;4.37;78.02;98310.97;5009458;28;20407;-69
2023/01/16 10:10:43;;;;;;;2.50;1.63;;;5.30;89.40;;;4.36;77.66;98314.63;5010292;28;20404;-70
2023/01/16 10:13:47;;;;;;;3.40;1.65;;;5.30;89.40;;;4.35;77.98;98294.44;5009709;28;20761;-69
2023/01/16 10:16:29;;;;;;;5.10;1.77;;;5.30;89.50;;;4.32;78.02;98286.84;5009798;28;20411;-70
2023/01/16 10:19:17;;;;;;;2.85;1.67;;;5.30;89.70;;;4.34;77.58;98282.22;5009849;28;20437;-69
2023/01/16 10:22:22;;;;;;;2.13;1.40;;;5.30;89.70;;;4.35;77.04;98270.59;5009638;28;20554;-70
2023/01/16 10:25:12;;;;;;;3.95;1.80;;;5.30;89.00;;;4.39;76.82;98255.16;5009502;28;20467;-69
2023/01/16 10:27:58;;;;;;;3.92;1.60;;;5.30;89.00;;;4.48;76.02;98249.63;5009327;28;20409;-69
2023/01/16 10:30:31;;;;;;;2.90;1.60;;;5.40;87.50;;;4.53;75.40;98241.09;5009506;28;20408;-69
2023/01/16 10:33:12;;;;;;;3.88;1.83;;;5.50;87.50;;;4.50;76.32;98237.00;5009677;28;20428;-69
2023/01/16 10:35:46;;;;;;;2.97;1.65;;;5.50;87.00;;;4.57;74.83;98227.31;5009591;28;20408;-69
2023/01/16 10:38:38;;;;;;;5.35;1.60;;;5.60;86.20;;;4.69;73.82;98213.59;5008739;28;20455;-69
2023/01/16 10:49:25;;;;;;;2.65;1.58;;;5.70;85.50;;;4.75;74.36;98212.84;5009626;28;20424;-69
2023/01/16 10:49:38;;;;;;;4.95;1.80;;;5.80;85.00;;;4.81;74.32;98199.69;5003645;28;20428;-69
2023/01/16 10:52:08;;;;;;;3.00;1.30;;;5.80;85.00;;;4.97;73.21;98195.97;5008759;28;20912;-69
2023/01/16 10:54:38;;;;;;;2.80;1.45;;;5.90;84.80;;;4.90;72.86;98173.88;5009013;28;20507;-69
2023/01/16 10:57:17;;;;;;;2.70;1.40;;;5.90;83.80;;;4.87;72.63;98168.94;5008673;28;20480;-69
2023/01/16 10:59:47;;;;;;;2.78;1.40;;;5.80;83.80;;;4.83;73.47;98162.41;5008899;28;20413;-70
2023/01/16 11:02:23;;;;;;;4.13;1.50;;;5.80;84.20;;;4.92;72.29;98161.28;5009248;28;20432;-69
2023/01/16 11:04:53;;;;;;;3.20;1.50;;;5.80;83.10;;;4.87;73.18;98142.44;5009562;28;20405;-69
2023/01/16 11:07:27;;;;;;;2.40;1.20;;;5.80;83.60;;;4.90;72.26;98137.59;5007948;28;20877;-70
2023/01/16 11:09:55;;;;;;;2.60;1.30;;;5.90;83.20;;;4.97;72.92;98122.56;5008865;28;20401;-70
2023/01/16 11:18:29;;;;;;;3.80;1.67;;;5.90;83.20;;;4.94;71.84;98116.81;5004451;28;20976;-70
2023/01/16 11:21:02;;;;;;;3.47;1.38;;;5.90;82.70;;;4.93;72.69;98105.41;5008551;28;20415;-70
2023/01/16 11:23:39;;;;;;;3.10;1.60;;;5.90;83.00;;;4.98;72.19;98100.34;5008927;28;20953;-70
2023/01/16 11:26:10;;;;;;;3.72;2.17;;;6.00;82.70;;;4.97;71.27;98087.28;5008342;28;20409;-70
2023/01/16 11:28:39;;;;;;;2.40;1.40;;;6.00;82.10;;;4.97;71.69;98072.19;5008737;28;20420;-70
2023/01/16 11:31:15;;;;;;;3.55;1.50;;;5.90;81.60;;;5.02;70.93;98056.56;5009128;28;20423;-70
2023/01/16 11:33:49;;;;;;;2.33;1.40;;;6.00;81.10;;;5.02;71.73;98047.78;5008541;28;20408;-70
2023/01/16 11:36:18;;;;;;;2.72;1.40;;;6.00;81.70;;;5.04;71.84;98043.09;5008727;28;20401;-70
2023/01/16 11:38:50;;;;;;;2.67;1.40;;;6.00;81.90;;;5.02;71.45;98027.38;5007973;28;20412;-70